createdAt,value
2022-10-05T00:01:15.625Z,6.13
2022-10-05T00:03:44.047Z,5.97
2022-10-05T00:06:14.007Z,11.05
2022-10-05T00:11:14.608Z,7.88
2022-10-05T00:13:43.579Z,6.82
2022-10-05T00:16:17.276Z,6.57
2022-10-05T00:18:49.629Z,7.53
2022-10-05T00:21:21.307Z,6.95
2022-10-05T00:23:50.351Z,4.45
2022-10-05T00:26:21.922Z,4.68
2022-10-05T00:28:50.839Z,5.93
2022-10-05T00:31:23.168Z,6.15
2022-10-05T00:33:51.991Z,6.57
2022-10-05T00:36:21.901Z,4.90
2022-10-05T00:41:24.740Z,6.68
2022-10-05T00:44:08.621Z,5.00
2022-10-05T00:46:50.545Z,6.97
2022-10-05T00:49:29.902Z,6.05
2022-10-05T00:52:09.164Z,7.60
2022-10-05T00:54:45.541Z,6.63
2022-10-05T00:57:28.409Z,6.57
2022-10-05T01:00:06.512Z,6.38
2022-10-05T01:02:51.582Z,4.63
2022-10-05T01:05:39.761Z,5.25
2022-10-05T01:08:23.293Z,5.78
2022-10-05T01:11:02.301Z,4.95
2022-10-05T01:13:37.729Z,4.93
2022-10-05T01:16:11.765Z,4.55
2022-10-05T01:18:51.340Z,5.65
2022-10-05T01:21:23.037Z,4.95
2022-10-05T01:24:30.312Z,3.88
2022-10-05T01:27:12.543Z,5.57
2022-10-05T01:29:51.449Z,4.78
2022-10-05T01:32:26.157Z,4.68
2022-10-05T01:35:01.182Z,4.55
2022-10-05T01:37:37.828Z,4.97
2022-10-05T01:40:12.683Z,3.67
2022-10-05T01:42:54.972Z,4.38
2022-10-05T01:45:31.450Z,4.25
2022-10-05T01:48:09.493Z,5.18
2022-10-05T01:50:48.408Z,3.35
2022-10-05T01:53:25.777Z,4.20
2022-10-05T01:56:03.465Z,3.53
2022-10-05T01:58:42.533Z,3.20
2022-10-05T02:01:22.927Z,6.18
2022-10-05T02:03:58.012Z,5.93
2022-10-05T02:06:31.580Z,4.75
2022-10-05T02:09:05.548Z,4.10
2022-10-05T02:11:35.148Z,4.47
2022-10-05T02:14:08.288Z,4.30
2022-10-05T02:16:41.311Z,4.20
2022-10-05T02:19:16.019Z,2.83
2022-10-05T02:21:49.317Z,2.92
2022-10-05T02:24:24.456Z,4.95
2022-10-05T02:26:56.077Z,3.63
2022-10-05T02:29:28.783Z,6.60
2022-10-05T02:32:04.423Z,4.82
2022-10-05T02:34:38.663Z,9.10
2022-10-05T02:37:26.132Z,8.00
2022-10-05T02:40:26.478Z,7.78
2022-10-05T02:43:05.452Z,9.18
2022-10-05T02:45:43.429Z,8.15
2022-10-05T02:48:20.627Z,7.35
2022-10-05T02:50:58.088Z,8.70
2022-10-05T02:53:34.586Z,11.68
2022-10-05T02:56:11.689Z,8.73
2022-10-05T02:58:48.611Z,8.07
2022-10-05T03:01:24.962Z,11.43
2022-10-05T03:04:06.073Z,8.98
2022-10-05T03:06:44.468Z,8.80
2022-10-05T03:09:16.214Z,9.73
2022-10-05T03:11:52.276Z,7.78
2022-10-05T03:14:27.142Z,7.03
2022-10-05T03:17:07.379Z,9.35
2022-10-05T03:19:51.829Z,9.43
2022-10-05T03:22:32.213Z,7.47
2022-10-05T03:25:21.035Z,6.18
2022-10-05T03:28:00.809Z,8.65
2022-10-05T03:30:35.103Z,8.10
2022-10-05T03:33:12.304Z,8.05
2022-10-05T03:35:51.467Z,9.02
2022-10-05T03:38:27.515Z,8.15
2022-10-05T03:44:02.723Z,7.43
2022-10-05T03:46:45.643Z,9.45
2022-10-05T03:49:22.972Z,9.88
2022-10-05T03:52:01.401Z,7.63
2022-10-05T03:54:33.852Z,6.38
2022-10-05T03:57:08.694Z,6.53
2022-10-05T03:59:42.982Z,5.40
2022-10-05T04:02:19.593Z,7.90
2022-10-05T04:04:53.782Z,5.43
2022-10-05T04:07:33.177Z,6.28
2022-10-05T04:10:04.340Z,6.25
2022-10-05T04:12:37.905Z,6.68
2022-10-05T04:15:18.996Z,5.88
2022-10-05T04:17:52.762Z,5.95
2022-10-05T04:20:25.828Z,6.75
2022-10-05T04:23:03.525Z,6.75
2022-10-05T04:25:38.015Z,7.20
2022-10-05T04:28:13.362Z,4.82
2022-10-05T04:30:46.168Z,4.30
2022-10-05T04:33:16.116Z,5.80
2022-10-05T04:36:07.126Z,5.93
2022-10-05T04:38:52.659Z,4.70
2022-10-05T04:41:35.482Z,7.25
2022-10-05T04:44:19.158Z,4.35
2022-10-05T04:47:03.325Z,5.97
2022-10-05T04:49:54.658Z,6.47
2022-10-05T04:52:30.419Z,4.40
2022-10-05T04:55:10.003Z,4.03
2022-10-05T04:57:46.620Z,6.50
2022-10-05T05:00:23.815Z,5.10
2022-10-05T05:03:13.182Z,5.38
2022-10-05T05:06:15.272Z,6.43
2022-10-05T05:08:58.048Z,3.83
2022-10-05T05:11:34.655Z,5.13
2022-10-05T05:14:22.516Z,4.47
2022-10-05T05:16:58.881Z,5.30
2022-10-05T05:19:42.640Z,5.55
2022-10-05T05:22:21.182Z,3.90
2022-10-05T05:25:06.964Z,4.38
2022-10-05T05:27:43.307Z,3.92
2022-10-05T05:30:22.300Z,4.90
2022-10-05T05:33:07.147Z,6.38
2022-10-05T05:36:22.890Z,3.67
2022-10-05T05:39:04.673Z,5.45
2022-10-05T05:41:38.771Z,6.13
2022-10-05T05:44:21.304Z,4.38
2022-10-05T05:49:50.871Z,4.68
2022-10-05T05:52:24.962Z,5.03
2022-10-05T05:54:59.048Z,4.13
2022-10-05T05:57:33.329Z,4.38
2022-10-05T06:00:08.371Z,6.40
2022-10-05T06:02:55.346Z,4.90
2022-10-05T06:05:37.788Z,5.40
2022-10-05T06:08:14.505Z,5.82
2022-10-05T06:10:49.737Z,4.15
2022-10-05T06:13:23.277Z,3.88
2022-10-05T06:15:56.713Z,7.47
2022-10-05T06:18:26.558Z,5.75
2022-10-05T06:21:02.120Z,4.90
2022-10-05T06:23:42.181Z,4.63
2022-10-05T06:26:18.298Z,5.80
2022-10-05T06:28:53.001Z,5.55
2022-10-05T06:31:37.547Z,5.85
2022-10-05T06:34:19.915Z,5.32
2022-10-05T06:36:52.021Z,5.28
2022-10-05T06:39:51.015Z,4.38
2022-10-05T06:42:42.662Z,4.70
2022-10-05T06:45:42.136Z,7.25
2022-10-05T06:48:47.369Z,8.63
2022-10-05T06:51:44.571Z,8.57
2022-10-05T06:54:30.914Z,8.07
2022-10-05T06:57:05.922Z,10.25
2022-10-05T06:59:44.166Z,8.85
2022-10-05T07:02:22.090Z,8.65
2022-10-05T07:05:07.036Z,8.02
2022-10-05T07:07:44.778Z,5.95
2022-10-05T07:10:23.896Z,6.35
2022-10-05T07:13:06.500Z,7.38
2022-10-05T07:15:43.486Z,7.30
2022-10-05T07:18:34.774Z,7.70
2022-10-05T07:21:16.588Z,7.38
2022-10-05T07:23:54.900Z,6.50
2022-10-05T07:26:28.711Z,6.10
2022-10-05T07:29:17.926Z,7.75
2022-10-05T07:31:53.974Z,6.47
2022-10-05T07:37:20.466Z,7.32
2022-10-05T07:40:01.164Z,5.88
2022-10-05T07:42:51.736Z,5.05
2022-10-05T07:45:29.398Z,4.65
2022-10-05T07:48:02.762Z,10.10
2022-10-05T07:50:39.583Z,11.52
2022-10-05T07:53:16.346Z,5.03
2022-10-05T07:55:50.464Z,7.75
2022-10-05T07:58:25.306Z,5.82
2022-10-05T08:01:03.630Z,7.18
2022-10-05T08:03:45.899Z,6.35
2022-10-05T08:06:19.659Z,5.75
2022-10-05T08:08:57.150Z,6.80
2022-10-05T08:11:32.011Z,6.10
2022-10-05T08:14:06.184Z,7.03
2022-10-05T08:16:39.380Z,6.00
2022-10-05T08:19:19.530Z,7.38
2022-10-05T08:21:53.521Z,8.10
2022-10-05T08:24:36.132Z,7.68
2022-10-05T08:27:11.423Z,5.53
2022-10-05T08:29:47.212Z,8.90
2022-10-05T08:32:23.563Z,7.93
2022-10-05T08:34:56.674Z,7.80
2022-10-05T08:37:28.346Z,9.32
2022-10-05T08:40:15.744Z,8.10
2022-10-05T08:43:11.079Z,7.30
2022-10-05T08:46:08.984Z,7.68
2022-10-05T08:49:17.998Z,8.68
2022-10-05T08:52:24.927Z,9.98
2022-10-05T08:55:28.413Z,8.75
2022-10-05T08:58:17.380Z,6.65
2022-10-05T09:00:56.561Z,6.03
2022-10-05T09:03:44.303Z,6.28
2022-10-05T09:06:54.148Z,8.40
2022-10-05T09:09:39.074Z,6.97
2022-10-05T09:12:30.295Z,6.43
2022-10-05T09:15:25.761Z,6.43
2022-10-05T09:18:26.657Z,7.20
2022-10-05T09:20:59.806Z,4.38
2022-10-05T09:23:40.043Z,5.63
2022-10-05T09:26:10.259Z,5.63
2022-10-05T09:28:56.069Z,4.25
2022-10-05T09:31:42.159Z,4.88
2022-10-05T09:34:40.234Z,4.63
2022-10-05T09:37:30.237Z,4.35
2022-10-05T09:40:35.848Z,4.10
2022-10-05T09:43:29.468Z,4.22
2022-10-05T09:46:30.726Z,6.72
2022-10-05T09:49:33.208Z,3.42
2022-10-05T09:52:16.417Z,4.07
2022-10-05T09:55:27.717Z,3.53
2022-10-05T09:58:34.636Z,4.60
2022-10-05T10:01:36.415Z,6.32
2022-10-05T10:04:29.664Z,5.18
2022-10-05T10:07:21.532Z,4.28
2022-10-05T10:10:21.495Z,3.40
2022-10-05T10:13:13.729Z,4.40
2022-10-05T10:16:12.028Z,3.25
2022-10-05T10:18:54.792Z,2.83
2022-10-05T10:21:42.137Z,2.33
2022-10-05T10:24:24.921Z,2.45
2022-10-05T10:27:05.514Z,3.80
2022-10-05T10:29:46.196Z,1.85
2022-10-05T10:32:37.619Z,1.50
2022-10-05T10:35:19.892Z,2.38
2022-10-05T10:38:24.483Z,2.10
2022-10-05T10:41:21.300Z,2.88
2022-10-05T10:44:29.141Z,1.85
2022-10-05T10:47:23.187Z,1.63
2022-10-05T10:50:23.925Z,3.30
2022-10-05T10:53:05.630Z,2.13
2022-10-05T10:55:45.920Z,11.02
2022-10-05T10:58:50.757Z,2.83
2022-10-05T11:01:32.549Z,5.25
2022-10-05T11:04:29.218Z,2.88
2022-10-05T11:07:19.570Z,1.88
2022-10-05T11:10:25.935Z,1.77
2022-10-05T11:13:24.622Z,1.65
2022-10-05T11:16:21.566Z,1.63
2022-10-05T11:19:12.565Z,3.00
2022-10-05T11:21:56.784Z,2.30
2022-10-05T11:24:58.048Z,1.48
2022-10-05T11:27:50.480Z,1.52
2022-10-05T11:30:48.861Z,1.42
2022-10-05T11:34:01.117Z,2.22
2022-10-05T11:37:04.035Z,1.95
2022-10-05T11:39:45.096Z,1.83
2022-10-05T11:42:52.596Z,2.70
2022-10-05T11:45:27.261Z,1.63
2022-10-05T11:48:23.719Z,2.28
2022-10-05T11:51:11.936Z,1.55
2022-10-05T11:53:43.927Z,2.17
2022-10-05T11:56:24.921Z,1.25
2022-10-05T11:58:58.972Z,1.77
2022-10-05T12:01:34.550Z,1.50
2022-10-05T12:04:15.313Z,1.60
2022-10-05T12:07:03.394Z,2.25
2022-10-05T12:10:06.563Z,1.70
2022-10-05T12:12:44.189Z,2.85
2022-10-05T12:15:20.446Z,1.48
2022-10-05T12:17:57.463Z,1.75
2022-10-05T12:20:34.514Z,1.88
2022-10-05T12:23:11.846Z,1.80
2022-10-05T12:25:45.747Z,1.35
2022-10-05T12:28:17.956Z,2.25
2022-10-05T12:31:08.706Z,1.85
2022-10-05T12:33:47.107Z,2.00
2022-10-05T12:36:18.767Z,2.03
2022-10-05T12:38:54.997Z,2.15
2022-10-05T12:41:29.020Z,1.48
2022-10-05T12:44:12.198Z,1.75
2022-10-05T12:46:47.790Z,1.38
2022-10-05T12:49:43.121Z,1.23
2022-10-05T12:52:23.189Z,1.80
2022-10-05T12:54:59.763Z,1.52
2022-10-05T12:57:35.224Z,1.58
2022-10-05T13:00:09.377Z,1.83
2022-10-05T13:02:42.176Z,1.80
2022-10-05T13:05:27.195Z,1.92
2022-10-05T13:08:12.797Z,1.52
2022-10-05T13:10:49.190Z,1.60
2022-10-05T13:13:35.308Z,2.03
2022-10-05T13:16:15.719Z,1.80
2022-10-05T13:18:55.994Z,2.40
2022-10-05T13:21:33.840Z,2.28
2022-10-05T13:24:08.301Z,2.22
2022-10-05T13:26:40.429Z,2.30
2022-10-05T13:29:17.638Z,1.98
2022-10-05T13:31:49.199Z,2.13
2022-10-05T13:34:27.424Z,2.42
2022-10-05T13:37:08.742Z,2.15
2022-10-05T13:42:18.823Z,1.70
2022-10-05T13:44:51.490Z,2.58
2022-10-05T13:47:31.125Z,2.40
2022-10-05T13:50:04.536Z,4.22
2022-10-05T13:52:45.881Z,1.83
2022-10-05T13:55:22.124Z,2.50
2022-10-05T13:57:58.700Z,2.97
2022-10-05T14:00:28.138Z,3.25
2022-10-05T14:02:58.398Z,1.98
2022-10-05T14:05:28.186Z,1.73
2022-10-05T14:08:11.089Z,2.47
2022-10-05T14:10:41.963Z,1.50
2022-10-05T14:13:21.123Z,1.73
2022-10-05T14:16:05.481Z,2.08
2022-10-05T14:18:37.524Z,1.63
2022-10-05T14:21:22.124Z,1.98
2022-10-05T14:23:52.367Z,1.38
2022-10-05T14:26:33.378Z,1.27
2022-10-05T14:29:15.821Z,1.73
2022-10-05T14:31:52.261Z,1.40
2022-10-05T14:34:33.068Z,1.85
2022-10-05T14:37:09.957Z,1.45
2022-10-05T14:39:42.509Z,1.35
2022-10-05T14:42:17.515Z,2.60
2022-10-05T14:44:46.506Z,1.90
2022-10-05T14:47:22.539Z,2.10
2022-10-05T14:50:11.454Z,2.00
2022-10-05T14:52:41.097Z,2.00
2022-10-05T14:55:23.998Z,2.35
2022-10-05T14:58:04.799Z,2.28
2022-10-05T15:00:39.254Z,1.80
2022-10-05T15:03:29.230Z,1.65
2022-10-05T15:06:01.517Z,1.42
2022-10-05T15:08:48.019Z,1.40
2022-10-05T15:11:29.708Z,1.27
2022-10-05T15:14:00.867Z,1.40
2022-10-05T15:16:34.013Z,2.42
2022-10-05T15:19:11.194Z,1.30
2022-10-05T15:21:55.206Z,0.82
2022-10-05T15:24:27.878Z,1.17
2022-10-05T15:26:59.294Z,1.40
2022-10-05T15:29:54.862Z,0.63
2022-10-05T15:32:37.965Z,0.60
2022-10-05T15:35:36.745Z,1.55
2022-10-05T15:38:15.905Z,0.82
2022-10-05T15:40:50.580Z,0.60
2022-10-05T15:43:23.789Z,0.75
2022-10-05T15:46:01.583Z,1.40
2022-10-05T15:48:43.745Z,0.80
2022-10-05T15:51:18.592Z,1.35
2022-10-05T15:54:16.700Z,1.85
2022-10-05T15:56:52.071Z,1.42
2022-10-05T15:59:31.001Z,1.45
2022-10-05T16:02:02.113Z,1.55
2022-10-05T16:04:42.607Z,1.77
2022-10-05T16:07:34.406Z,1.20
2022-10-05T16:10:12.650Z,1.90
2022-10-05T16:12:51.292Z,2.17
2022-10-05T16:15:33.298Z,1.55
2022-10-05T16:18:15.170Z,2.13
2022-10-05T16:20:51.080Z,1.80
2022-10-05T16:23:29.798Z,1.38
2022-10-05T16:26:13.072Z,3.45
2022-10-05T16:28:50.850Z,1.13
2022-10-05T16:31:27.720Z,4.50
2022-10-05T16:34:04.013Z,1.73
2022-10-05T16:36:44.536Z,3.40
2022-10-05T16:39:21.064Z,3.13
2022-10-05T16:41:58.757Z,2.17
2022-10-05T16:44:39.525Z,2.63
2022-10-05T16:47:32.833Z,2.95
2022-10-05T16:50:09.569Z,1.15
2022-10-05T16:52:41.141Z,2.58
2022-10-05T16:55:14.470Z,3.25
2022-10-05T16:57:48.306Z,1.55
2022-10-05T17:00:21.586Z,1.55
2022-10-05T17:03:07.533Z,1.30
2022-10-05T17:05:59.412Z,0.90
2022-10-05T17:08:45.406Z,2.25
2022-10-05T17:11:25.835Z,1.52
2022-10-05T17:14:17.765Z,2.22
2022-10-05T17:16:58.269Z,1.30
2022-10-05T17:19:49.558Z,1.80
2022-10-05T17:22:26.192Z,1.00
2022-10-05T17:25:01.879Z,1.63
2022-10-05T17:30:39.671Z,0.85
2022-10-05T17:33:27.315Z,1.70
2022-10-05T17:36:19.791Z,2.30
2022-10-05T17:38:51.315Z,1.33
2022-10-05T17:41:22.483Z,1.30
2022-10-05T17:44:20.071Z,2.65
2022-10-05T17:46:50.763Z,1.30
2022-10-05T17:50:08.761Z,2.90
2022-10-05T17:53:01.263Z,2.47
2022-10-05T17:56:01.693Z,0.85
2022-10-05T17:59:01.270Z,2.20
2022-10-05T18:01:33.748Z,1.27
2022-10-05T18:04:33.576Z,0.82
2022-10-05T18:07:06.263Z,2.00
2022-10-05T18:09:52.409Z,2.53
2022-10-05T18:12:40.651Z,2.60
2022-10-05T18:15:41.494Z,2.55
2022-10-05T18:18:57.073Z,4.35
2022-10-05T18:21:35.540Z,4.68
2022-10-05T18:24:38.659Z,3.28
2022-10-05T18:27:34.249Z,4.03
2022-10-05T18:30:18.678Z,2.67
2022-10-05T18:33:04.097Z,3.65
2022-10-05T18:35:47.615Z,2.58
2022-10-05T18:38:31.686Z,3.08
2022-10-05T18:41:08.945Z,6.50
2022-10-05T18:43:44.640Z,5.00
2022-10-05T18:46:24.286Z,14.63
2022-10-05T18:49:05.338Z,22.00
2022-10-05T18:51:51.537Z,17.27
2022-10-05T18:54:44.428Z,19.02
2022-10-05T18:57:46.954Z,9.05
2022-10-05T19:00:19.654Z,5.85
2022-10-05T19:02:52.182Z,4.45
2022-10-05T19:05:47.641Z,6.30
2022-10-05T19:08:28.006Z,5.40
2022-10-05T19:11:03.471Z,8.48
2022-10-05T19:13:42.932Z,5.15
2022-10-05T19:16:30.610Z,5.90
2022-10-05T19:19:11.094Z,4.60
2022-10-05T19:21:47.651Z,7.25
2022-10-05T19:24:33.761Z,5.60
2022-10-05T19:27:07.644Z,5.05
2022-10-05T19:30:00.102Z,4.47
2022-10-05T19:32:37.734Z,5.40
2022-10-05T19:35:19.650Z,3.75
2022-10-05T19:37:56.533Z,4.25
2022-10-05T19:40:31.476Z,4.55
2022-10-05T19:43:23.289Z,3.05
2022-10-05T19:46:06.210Z,4.43
2022-10-05T19:48:46.037Z,4.30
2022-10-05T19:51:17.740Z,3.80
2022-10-05T19:53:50.010Z,3.50
2022-10-05T19:56:20.476Z,3.00
2022-10-05T19:58:50.166Z,2.63
2022-10-05T20:01:30.687Z,3.15
2022-10-05T20:03:59.302Z,3.75
2022-10-05T20:06:29.436Z,3.55
2022-10-05T20:08:59.990Z,4.60
2022-10-05T20:11:29.465Z,4.82
2022-10-05T20:14:22.329Z,5.85
2022-10-05T20:17:34.902Z,3.67
2022-10-05T20:20:22.689Z,3.38
2022-10-05T20:22:51.217Z,4.68
2022-10-05T20:25:31.512Z,4.28
2022-10-05T20:27:59.275Z,3.35
2022-10-05T20:30:30.807Z,2.83
2022-10-05T20:33:01.585Z,3.40
2022-10-05T20:35:30.593Z,3.05
2022-10-05T20:38:00.306Z,4.07
2022-10-05T20:40:29.909Z,5.00
2022-10-05T20:42:58.904Z,5.60
2022-10-05T20:45:27.734Z,3.90
2022-10-05T20:47:56.133Z,3.33
2022-10-05T20:50:27.499Z,5.50
2022-10-05T20:52:57.557Z,4.13
2022-10-05T20:55:31.217Z,3.92
2022-10-05T20:57:59.629Z,6.18
2022-10-05T21:00:48.401Z,3.42
2022-10-05T21:03:19.197Z,6.15
2022-10-05T21:05:49.038Z,3.80
2022-10-05T21:10:46.181Z,4.80
2022-10-05T21:13:14.547Z,3.40
2022-10-05T21:15:42.946Z,3.55
2022-10-05T21:18:11.360Z,7.55
2022-10-05T21:20:39.780Z,4.05
2022-10-05T21:23:09.614Z,4.03
2022-10-05T21:25:38.042Z,4.07
2022-10-05T21:28:06.587Z,3.15
2022-10-05T21:30:35.046Z,3.75
2022-10-05T21:33:03.458Z,4.57
2022-10-05T21:35:31.877Z,4.55
2022-10-05T21:38:00.295Z,3.65
2022-10-05T21:40:30.056Z,4.60
2022-10-05T21:45:26.803Z,4.03
2022-10-05T21:47:55.391Z,5.03
2022-10-05T21:50:23.949Z,3.90
2022-10-05T21:52:53.512Z,4.45
2022-10-05T21:55:22.334Z,4.25
2022-10-05T21:57:52.313Z,3.47
2022-10-05T22:00:20.895Z,4.05
2022-10-05T22:02:49.434Z,5.50
2022-10-05T22:05:18.411Z,5.45
2022-10-05T22:07:46.873Z,4.03
2022-10-05T22:10:15.564Z,8.18
2022-10-05T22:12:46.257Z,8.52
2022-10-05T22:15:16.368Z,7.50
2022-10-05T22:17:46.057Z,8.57
2022-10-05T22:20:15.482Z,6.45
2022-10-05T22:22:43.872Z,7.40
2022-10-05T22:25:12.269Z,6.07
2022-10-05T22:27:41.089Z,3.80
2022-10-05T22:30:10.555Z,5.57
2022-10-05T22:32:40.389Z,5.20
2022-10-05T22:35:11.727Z,5.18
2022-10-05T22:37:40.411Z,6.68
2022-10-05T22:40:11.153Z,4.43
2022-10-05T22:42:40.461Z,3.67
2022-10-05T22:45:09.905Z,4.10
2022-10-05T22:47:38.273Z,5.30
2022-10-05T22:50:09.530Z,4.43
2022-10-05T22:52:38.041Z,3.60
2022-10-05T22:55:07.464Z,3.17
2022-10-05T22:57:39.700Z,5.80
2022-10-05T23:00:09.989Z,4.63
2022-10-05T23:02:39.524Z,5.53
2022-10-05T23:05:13.145Z,4.05
2022-10-05T23:07:43.287Z,4.22
2022-10-05T23:10:14.611Z,3.22
2022-10-05T23:12:43.497Z,5.07
2022-10-05T23:15:12.584Z,4.90
2022-10-05T23:17:40.941Z,5.45
2022-10-05T23:20:11.089Z,4.40
2022-10-05T23:22:40.225Z,3.63
2022-10-05T23:25:09.498Z,5.90
2022-10-05T23:27:38.542Z,5.50
2022-10-05T23:30:09.179Z,4.68
2022-10-05T23:32:41.636Z,3.50
2022-10-05T23:35:13.389Z,3.47
2022-10-05T23:37:43.450Z,4.40
2022-10-05T23:40:14.346Z,5.07
2022-10-05T23:42:42.930Z,6.03
2022-10-05T23:45:12.830Z,2.72
2022-10-05T23:50:11.427Z,4.43
2022-10-05T23:55:08.656Z,3.47
2022-10-05T23:57:38.240Z,6.40
